createdAt,value
2022-07-30T00:00:41.792Z,73.89
2022-07-30T00:03:10.024Z,74.53
2022-07-30T00:05:38.199Z,74.21
2022-07-30T00:08:06.680Z,74.01
2022-07-30T00:10:34.905Z,74.48
2022-07-30T00:13:04.531Z,74.42
2022-07-30T00:15:32.700Z,74.75
2022-07-30T00:18:00.859Z,74.76
2022-07-30T00:20:29.219Z,74.71
2022-07-30T00:22:57.806Z,74.73
2022-07-30T00:25:26.471Z,75.54
2022-07-30T00:27:57.732Z,75.11
2022-07-30T00:30:27.637Z,75.51
2022-07-30T00:32:55.861Z,75.73
2022-07-30T00:35:24.177Z,75.84
2022-07-30T00:37:58.626Z,76.14
2022-07-30T00:40:27.062Z,76.42
2022-07-30T00:42:55.226Z,76.62
2022-07-30T00:45:23.539Z,76.17
2022-07-30T00:47:53.090Z,76.27
2022-07-30T00:50:21.703Z,76.09
2022-07-30T00:52:52.734Z,76.05
2022-07-30T00:55:20.899Z,76.49
2022-07-30T00:57:49.027Z,76.80
2022-07-30T01:00:19.888Z,77.06
2022-07-30T01:02:48.219Z,77.79
2022-07-30T01:05:18.066Z,77.94
2022-07-30T01:07:46.702Z,77.76
2022-07-30T01:10:16.698Z,78.66
2022-07-30T01:12:45.894Z,78.71
2022-07-30T01:15:14.486Z,78.67
2022-07-30T01:17:42.868Z,78.10
2022-07-30T01:20:18.799Z,78.03
2022-07-30T01:23:00.657Z,78.67
2022-07-30T01:25:47.627Z,78.60
2022-07-30T01:28:21.033Z,78.57
2022-07-30T01:30:50.707Z,79.03
2022-07-30T01:33:20.095Z,78.40
2022-07-30T01:35:49.794Z,79.04
2022-07-30T01:38:23.049Z,79.24
2022-07-30T01:40:54.638Z,79.46
2022-07-30T01:43:26.425Z,79.16
2022-07-30T01:45:55.448Z,79.31
2022-07-30T01:48:26.797Z,79.70
2022-07-30T01:50:59.905Z,79.72
2022-07-30T01:53:31.103Z,79.68
2022-07-30T01:56:03.167Z,79.28
2022-07-30T01:58:37.693Z,79.29
2022-07-30T02:01:07.388Z,79.88
2022-07-30T02:03:36.685Z,79.62
2022-07-30T02:06:09.397Z,79.36
2022-07-30T02:08:42.976Z,80.03
2022-07-30T02:11:16.390Z,79.82
2022-07-30T02:13:53.811Z,79.77
2022-07-30T02:16:29.488Z,80.24
2022-07-30T02:19:06.127Z,80.08
2022-07-30T02:21:40.195Z,80.02
2022-07-30T02:24:23.579Z,79.61
2022-07-30T02:26:58.476Z,79.13
2022-07-30T02:29:26.965Z,78.95
2022-07-30T02:31:57.830Z,79.17
2022-07-30T02:34:26.964Z,79.09
2022-07-30T02:36:56.972Z,79.23
2022-07-30T02:39:27.162Z,78.86
2022-07-30T02:42:00.286Z,78.63
2022-07-30T02:44:34.381Z,78.39
2022-07-30T02:47:04.730Z,79.20
2022-07-30T02:49:38.048Z,78.42
2022-07-30T02:52:12.151Z,78.80
2022-07-30T02:54:43.582Z,79.03
2022-07-30T02:57:15.346Z,79.63
2022-07-30T02:59:47.221Z,79.63
2022-07-30T03:02:15.714Z,79.62
2022-07-30T03:04:45.453Z,80.25
2022-07-30T03:07:18.026Z,80.99
2022-07-30T03:09:52.089Z,81.20
2022-07-30T03:12:23.867Z,80.83
2022-07-30T03:14:52.790Z,81.02
2022-07-30T03:17:23.201Z,80.96
2022-07-30T03:19:52.524Z,81.03
2022-07-30T03:22:22.779Z,81.32
2022-07-30T03:24:51.784Z,81.29
2022-07-30T03:27:23.595Z,81.34
2022-07-30T03:29:55.590Z,81.39
2022-07-30T03:32:25.962Z,81.18
2022-07-30T03:34:56.084Z,81.54
2022-07-30T03:37:26.326Z,81.49
2022-07-30T03:39:55.293Z,81.78
2022-07-30T03:42:25.703Z,81.26
2022-07-30T03:44:54.763Z,81.01
2022-07-30T03:47:24.509Z,81.52
2022-07-30T03:49:53.487Z,81.28
2022-07-30T03:52:22.059Z,82.01
2022-07-30T03:54:51.348Z,82.36
2022-07-30T03:57:20.563Z,81.86
2022-07-30T03:59:51.724Z,82.00
2022-07-30T04:02:20.060Z,82.54
2022-07-30T04:04:48.219Z,82.97
2022-07-30T04:07:16.531Z,82.49
2022-07-30T04:09:44.774Z,82.77
2022-07-30T04:12:13.774Z,83.54
2022-07-30T04:14:45.277Z,83.11
2022-07-30T04:17:22.872Z,83.92
2022-07-30T04:19:54.875Z,83.48
2022-07-30T04:22:28.561Z,83.94
2022-07-30T04:24:57.738Z,83.76
2022-07-30T04:27:27.074Z,83.86
2022-07-30T04:29:56.018Z,84.02
2022-07-30T04:32:27.406Z,84.28
2022-07-30T04:34:57.338Z,84.33
2022-07-30T04:37:28.107Z,84.22
2022-07-30T04:40:00.474Z,84.13
2022-07-30T04:42:29.944Z,84.00
2022-07-30T04:44:58.965Z,83.85
2022-07-30T04:47:28.472Z,84.06
2022-07-30T04:49:57.896Z,84.29
2022-07-30T04:52:26.546Z,83.76
2022-07-30T04:54:58.040Z,83.66
2022-07-30T04:57:27.194Z,83.57
2022-07-30T04:59:55.613Z,83.38
2022-07-30T05:02:28.445Z,83.66
2022-07-30T05:04:57.636Z,83.25
2022-07-30T05:07:28.347Z,83.24
2022-07-30T05:09:56.461Z,83.08
2022-07-30T05:12:34.248Z,82.47
2022-07-30T05:15:02.389Z,82.10
2022-07-30T05:17:32.062Z,81.93
2022-07-30T05:20:02.038Z,81.79
2022-07-30T05:22:30.989Z,82.19
2022-07-30T05:24:59.195Z,81.47
2022-07-30T05:27:27.372Z,81.42
2022-07-30T05:29:55.589Z,81.27
2022-07-30T05:32:25.462Z,80.98
2022-07-30T05:34:58.529Z,80.84
2022-07-30T05:37:26.736Z,80.37
2022-07-30T05:39:58.892Z,80.47
2022-07-30T05:42:31.763Z,80.43
2022-07-30T05:45:00.257Z,80.18
2022-07-30T05:47:28.827Z,80.07
2022-07-30T05:50:01.566Z,80.00
2022-07-30T05:52:32.809Z,79.97
2022-07-30T05:55:00.977Z,79.52
2022-07-30T05:57:29.128Z,79.31
2022-07-30T05:59:57.285Z,79.34
2022-07-30T06:02:25.485Z,79.07
2022-07-30T06:04:53.958Z,78.98
2022-07-30T06:07:23.642Z,78.90
2022-07-30T06:09:51.808Z,78.82
2022-07-30T06:12:20.022Z,78.50
2022-07-30T06:14:48.158Z,78.49
2022-07-30T06:17:16.364Z,78.31
2022-07-30T06:19:44.567Z,77.92
2022-07-30T06:22:12.666Z,77.82
2022-07-30T06:24:44.715Z,78.14
2022-07-30T06:27:12.963Z,77.59
2022-07-30T06:29:41.076Z,76.98
2022-07-30T06:32:10.510Z,77.11
2022-07-30T06:34:38.733Z,76.70
2022-07-30T06:37:06.830Z,77.16
2022-07-30T06:39:57.512Z,76.54
2022-07-30T06:42:24.552Z,76.61
2022-07-30T06:44:52.700Z,76.65
2022-07-30T06:47:28.483Z,75.92
2022-07-30T06:49:56.851Z,76.19
2022-07-30T06:52:25.715Z,76.02
2022-07-30T06:54:54.299Z,75.65
2022-07-30T06:57:23.791Z,75.80
2022-07-30T06:59:56.677Z,75.32
2022-07-30T07:02:25.781Z,75.34
2022-07-30T07:04:54.735Z,75.52
2022-07-30T07:07:37.435Z,74.87
2022-07-30T07:10:10.582Z,74.95
2022-07-30T07:12:40.262Z,74.64
2022-07-30T07:15:10.294Z,74.34
2022-07-30T07:17:38.488Z,74.48
2022-07-30T07:20:07.986Z,74.05
2022-07-30T07:22:36.289Z,73.82
2022-07-30T07:25:05.020Z,73.42
2022-07-30T07:27:33.338Z,73.29
2022-07-30T07:30:06.014Z,72.68
2022-07-30T07:32:35.067Z,72.15
2022-07-30T07:35:03.501Z,71.36
2022-07-30T07:37:31.764Z,70.80
2022-07-30T07:40:00.112Z,70.10
2022-07-30T07:42:28.350Z,69.79
2022-07-30T07:44:56.484Z,69.18
2022-07-30T07:47:26.026Z,68.93
2022-07-30T07:49:56.744Z,68.76
2022-07-30T07:52:24.976Z,68.70
2022-07-30T07:54:53.099Z,68.36
2022-07-30T07:57:21.692Z,68.08
2022-07-30T07:59:51.584Z,67.81
2022-07-30T08:02:19.735Z,67.68
2022-07-30T08:04:49.308Z,67.42
2022-07-30T08:07:17.496Z,67.13
2022-07-30T08:09:45.876Z,66.89
2022-07-30T08:12:14.669Z,66.73
2022-07-30T08:14:42.937Z,66.05
2022-07-30T08:17:11.113Z,65.82
2022-07-30T08:19:39.380Z,65.49
2022-07-30T08:22:10.691Z,65.22
2022-07-30T08:24:38.852Z,65.17
2022-07-30T08:27:09.286Z,64.61
2022-07-30T08:29:37.802Z,65.00
2022-07-30T08:32:06.723Z,64.41
2022-07-30T08:34:34.904Z,64.60
2022-07-30T08:37:03.545Z,63.91
2022-07-30T08:39:33.074Z,63.92
2022-07-30T08:42:05.154Z,63.11
2022-07-30T08:44:35.286Z,62.77
2022-07-30T08:47:04.709Z,62.90
2022-07-30T08:49:33.156Z,62.06
2022-07-30T08:52:01.713Z,61.93
2022-07-30T08:54:30.331Z,61.58
2022-07-30T08:57:01.258Z,61.46
2022-07-30T08:59:59.907Z,60.97
2022-07-30T09:02:18.995Z,60.61
2022-07-30T09:04:56.020Z,59.72
2022-07-30T09:07:24.426Z,59.52
2022-07-30T09:09:53.106Z,58.90
2022-07-30T09:12:40.974Z,58.50
2022-07-30T09:15:12.753Z,58.29
2022-07-30T09:17:55.649Z,57.46
2022-07-30T09:20:27.331Z,56.73
2022-07-30T09:22:58.733Z,57.05
2022-07-30T09:25:39.196Z,56.24
2022-07-30T09:28:16.160Z,56.15
2022-07-30T09:30:48.714Z,55.73
2022-07-30T09:33:17.281Z,55.23
2022-07-30T09:35:46.120Z,55.36
2022-07-30T09:38:17.409Z,55.15
2022-07-30T09:40:57.408Z,55.49
2022-07-30T09:43:28.144Z,55.74
2022-07-30T09:46:00.487Z,55.75
2022-07-30T09:48:29.516Z,55.04
2022-07-30T09:50:57.850Z,53.97
2022-07-30T09:53:29.043Z,53.61
2022-07-30T09:55:59.271Z,53.37
2022-07-30T09:58:40.544Z,52.81
2022-07-30T10:01:13.834Z,52.80
2022-07-30T10:03:43.994Z,52.61
2022-07-30T10:06:15.389Z,52.60
2022-07-30T10:08:50.065Z,51.88
2022-07-30T10:11:23.763Z,51.35
2022-07-30T10:13:59.150Z,51.19
2022-07-30T10:16:29.609Z,51.53
2022-07-30T10:19:01.117Z,51.81
2022-07-30T10:21:32.458Z,51.46
2022-07-30T10:24:01.355Z,51.84
2022-07-30T10:26:34.697Z,50.56
2022-07-30T10:29:04.995Z,49.40
2022-07-30T10:31:49.332Z,48.75
2022-07-30T10:34:23.584Z,48.47
2022-07-30T10:37:01.942Z,48.02
2022-07-30T10:39:38.682Z,47.66
2022-07-30T10:42:20.572Z,47.00
2022-07-30T10:45:17.233Z,46.42
2022-07-30T10:47:48.902Z,45.88
2022-07-30T10:50:22.231Z,45.96
2022-07-30T10:52:54.031Z,45.75
2022-07-30T10:55:36.911Z,44.90
2022-07-30T10:58:11.475Z,44.86
2022-07-30T11:01:04.996Z,44.15
2022-07-30T11:04:25.790Z,43.24
2022-07-30T11:07:31.619Z,42.84
2022-07-30T11:10:05.927Z,43.36
2022-07-30T11:12:55.717Z,43.04
2022-07-30T11:15:24.868Z,43.47
2022-07-30T11:18:11.397Z,42.57
2022-07-30T11:20:48.765Z,42.49
2022-07-30T11:23:39.447Z,42.61
2022-07-30T11:26:14.421Z,42.51
2022-07-30T11:28:49.226Z,42.76
2022-07-30T11:31:55.190Z,42.72
2022-07-30T11:34:31.224Z,41.47
2022-07-30T11:37:31.740Z,41.91
2022-07-30T11:40:11.912Z,41.18
2022-07-30T11:42:42.564Z,40.82
2022-07-30T11:45:30.235Z,41.76
2022-07-30T11:48:05.130Z,41.76
2022-07-30T11:50:35.793Z,42.17
2022-07-30T11:53:07.701Z,41.22
2022-07-30T11:55:40.769Z,40.01
2022-07-30T11:58:12.061Z,39.80
2022-07-30T12:00:42.586Z,40.33
2022-07-30T12:03:13.126Z,40.29
2022-07-30T12:05:42.204Z,40.76
2022-07-30T12:08:35.384Z,40.56
2022-07-30T12:11:02.686Z,40.30
2022-07-30T12:13:45.792Z,39.72
2022-07-30T12:16:18.069Z,40.19
2022-07-30T12:18:47.461Z,40.92
2022-07-30T12:21:17.230Z,39.59
2022-07-30T12:23:59.122Z,39.20
2022-07-30T12:26:29.935Z,38.54
2022-07-30T12:29:00.573Z,38.89
2022-07-30T12:31:29.783Z,39.40
2022-07-30T12:34:00.702Z,39.54
2022-07-30T12:36:32.579Z,39.44
2022-07-30T12:39:05.005Z,38.70
2022-07-30T12:41:44.462Z,37.71
2022-07-30T12:44:39.462Z,36.64
2022-07-30T12:47:20.134Z,36.05
2022-07-30T12:49:50.493Z,35.07
2022-07-30T12:52:28.166Z,34.37
2022-07-30T12:55:08.929Z,34.84
2022-07-30T12:58:00.735Z,34.89
2022-07-30T13:00:36.074Z,35.44
2022-07-30T13:03:21.204Z,35.10
2022-07-30T13:05:51.510Z,34.82
2022-07-30T13:08:47.060Z,33.13
2022-07-30T13:11:17.865Z,32.04
2022-07-30T13:13:46.248Z,31.52
2022-07-30T13:16:15.216Z,30.75
2022-07-30T13:18:43.807Z,31.05
2022-07-30T13:21:12.604Z,29.84
2022-07-30T13:23:44.550Z,29.79
2022-07-30T13:26:12.833Z,29.45
2022-07-30T13:28:42.442Z,29.00
2022-07-30T13:31:10.921Z,29.09
2022-07-30T13:33:39.641Z,28.55
2022-07-30T13:36:09.137Z,28.35
2022-07-30T13:38:37.403Z,27.95
2022-07-30T13:41:06.115Z,27.77
2022-07-30T13:43:34.454Z,28.11
2022-07-30T13:46:08.217Z,28.22
2022-07-30T13:48:36.764Z,27.38
2022-07-30T13:51:06.256Z,27.11
2022-07-30T13:53:36.208Z,26.40
2022-07-30T13:56:12.375Z,25.85
2022-07-30T13:58:41.628Z,25.65
2022-07-30T14:01:17.958Z,25.16
2022-07-30T14:03:50.646Z,24.24
2022-07-30T14:06:19.438Z,24.57
2022-07-30T14:08:47.688Z,23.58
2022-07-30T14:11:18.325Z,23.86
2022-07-30T14:13:46.799Z,23.51
2022-07-30T14:16:42.437Z,22.08
2022-07-30T14:19:05.150Z,22.81
2022-07-30T14:21:36.552Z,22.30
2022-07-30T14:24:08.135Z,22.58
2022-07-30T14:26:37.853Z,23.27
2022-07-30T14:29:06.494Z,23.01
2022-07-30T14:31:36.944Z,23.90
2022-07-30T14:34:06.030Z,24.10
2022-07-30T14:36:34.340Z,24.98
2022-07-30T14:39:04.218Z,24.15
2022-07-30T14:41:33.355Z,24.21
2022-07-30T14:44:03.017Z,23.42
2022-07-30T14:46:31.208Z,23.28
2022-07-30T14:49:00.686Z,23.30
2022-07-30T14:51:33.686Z,23.06
2022-07-30T14:54:02.840Z,23.52
2022-07-30T14:56:34.432Z,22.73
2022-07-30T14:59:04.026Z,22.54
2022-07-30T15:01:32.599Z,21.00
2022-07-30T15:04:04.150Z,21.19
2022-07-30T15:06:32.319Z,21.45
2022-07-30T15:09:00.567Z,21.85
2022-07-30T15:11:31.081Z,21.75
2022-07-30T15:14:04.784Z,21.76
2022-07-30T15:16:33.752Z,22.33
2022-07-30T15:19:05.054Z,21.74
2022-07-30T15:21:33.276Z,21.39
2022-07-30T15:24:03.273Z,21.32
2022-07-30T15:26:31.978Z,21.93
2022-07-30T15:29:00.170Z,21.81
2022-07-30T15:31:30.936Z,22.23
2022-07-30T15:33:59.426Z,22.32
2022-07-30T15:36:31.911Z,22.46
2022-07-30T15:39:00.091Z,22.73
2022-07-30T15:41:28.172Z,22.65
2022-07-30T15:43:56.363Z,23.14
2022-07-30T15:46:24.535Z,23.47
2022-07-30T15:48:55.087Z,25.09
2022-07-30T15:51:23.477Z,25.18
2022-07-30T15:53:53.239Z,26.24
2022-07-30T15:56:21.371Z,27.00
2022-07-30T15:58:53.216Z,26.56
2022-07-30T16:01:21.468Z,25.99
2022-07-30T16:03:49.750Z,26.28
2022-07-30T16:06:17.897Z,26.25
2022-07-30T16:08:46.174Z,27.26
2022-07-30T16:11:15.759Z,27.37
2022-07-30T16:13:43.993Z,28.00
2022-07-30T16:16:12.147Z,27.34
2022-07-30T16:18:40.491Z,27.20
2022-07-30T16:21:10.126Z,27.33
2022-07-30T16:23:38.999Z,27.33
2022-07-30T16:26:07.879Z,27.17
2022-07-30T16:28:37.391Z,27.33
2022-07-30T16:31:08.441Z,26.38
2022-07-30T16:33:37.640Z,27.20
2022-07-30T16:36:06.254Z,27.50
2022-07-30T16:38:34.479Z,28.08
2022-07-30T16:41:02.578Z,28.92
2022-07-30T16:43:31.989Z,30.09
2022-07-30T16:46:01.783Z,31.24
2022-07-30T16:48:32.624Z,31.94
2022-07-30T16:51:01.096Z,32.47
2022-07-30T16:53:29.422Z,33.44
2022-07-30T16:55:58.443Z,34.57
2022-07-30T16:58:28.352Z,34.70
2022-07-30T17:01:00.999Z,35.54
2022-07-30T17:03:29.362Z,35.42
2022-07-30T17:05:57.526Z,35.48
2022-07-30T17:08:25.782Z,35.62
2022-07-30T17:10:54.332Z,35.55
2022-07-30T17:13:25.541Z,35.72
2022-07-30T17:15:56.215Z,36.29
2022-07-30T17:18:25.711Z,36.18
2022-07-30T17:20:56.673Z,36.44
2022-07-30T17:23:24.945Z,36.81
2022-07-30T17:25:55.364Z,37.35
2022-07-30T17:28:27.157Z,37.75
2022-07-30T17:30:55.443Z,37.59
2022-07-30T17:33:25.841Z,38.40
2022-07-30T17:35:54.330Z,38.59
2022-07-30T17:38:22.530Z,38.47
2022-07-30T17:40:52.681Z,38.52
2022-07-30T17:43:20.859Z,39.31
2022-07-30T17:45:50.302Z,39.52
2022-07-30T17:48:19.127Z,39.57
2022-07-30T17:50:48.893Z,40.36
2022-07-30T17:53:17.071Z,40.24
2022-07-30T17:55:57.813Z,40.22
2022-07-30T17:58:26.927Z,40.87
2022-07-30T18:00:55.800Z,40.54
2022-07-30T18:03:24.000Z,40.28
2022-07-30T18:05:54.011Z,40.26
2022-07-30T18:08:22.082Z,40.61
2022-07-30T18:10:50.569Z,40.68
2022-07-30T18:13:26.294Z,40.83
2022-07-30T18:15:55.582Z,41.02
2022-07-30T18:18:23.771Z,41.20
2022-07-30T18:20:56.232Z,41.79
2022-07-30T18:23:24.436Z,41.73
2022-07-30T18:26:02.914Z,41.93
2022-07-30T18:28:37.040Z,42.45
2022-07-30T18:31:06.247Z,42.71
2022-07-30T18:33:34.531Z,42.46
2022-07-30T18:36:04.479Z,42.73
2022-07-30T18:38:40.439Z,43.49
2022-07-30T18:41:08.533Z,43.53
2022-07-30T18:43:48.239Z,44.34
2022-07-30T18:46:19.845Z,45.15
2022-07-30T18:48:48.732Z,45.79
2022-07-30T18:51:18.643Z,45.70
2022-07-30T18:53:46.840Z,46.18
2022-07-30T18:56:16.433Z,46.94
2022-07-30T18:58:46.850Z,47.20
2022-07-30T19:01:17.859Z,47.28
2022-07-30T19:03:46.172Z,47.90
2022-07-30T19:06:16.369Z,48.46
2022-07-30T19:08:45.924Z,47.95
2022-07-30T19:11:15.031Z,48.37
2022-07-30T19:13:43.236Z,48.19
2022-07-30T19:16:11.381Z,48.00
2022-07-30T19:18:39.465Z,48.24
2022-07-30T19:21:12.384Z,49.08
2022-07-30T19:23:42.230Z,49.64
2022-07-30T19:26:13.774Z,50.01
2022-07-30T19:28:43.133Z,50.17
2022-07-30T19:31:13.806Z,50.28
2022-07-30T19:33:44.737Z,50.05
2022-07-30T19:36:15.159Z,50.16
2022-07-30T19:38:45.200Z,50.05
2022-07-30T19:41:18.516Z,50.12
2022-07-30T19:43:58.161Z,50.46
2022-07-30T19:46:27.033Z,50.34
2022-07-30T19:48:56.968Z,50.09
2022-07-30T19:52:09.981Z,50.26
2022-07-30T19:54:15.446Z,50.77
2022-07-30T19:56:47.537Z,51.42
2022-07-30T19:59:16.145Z,51.25
2022-07-30T20:01:45.153Z,52.33
2022-07-30T20:04:20.830Z,53.13
2022-07-30T20:06:52.617Z,53.21
2022-07-30T20:09:20.807Z,53.48
2022-07-30T20:11:51.147Z,53.66
2022-07-30T20:14:22.864Z,54.02
2022-07-30T20:16:53.906Z,53.53
2022-07-30T20:19:23.771Z,53.34
2022-07-30T20:21:56.324Z,53.25
2022-07-30T20:24:26.323Z,53.20
2022-07-30T20:26:56.361Z,53.14
2022-07-30T20:29:24.791Z,53.19
2022-07-30T20:32:00.241Z,52.88
2022-07-30T20:34:30.759Z,52.77
2022-07-30T20:37:14.971Z,52.70
2022-07-30T20:39:49.258Z,52.72
2022-07-30T20:42:18.818Z,52.42
2022-07-30T20:44:50.903Z,52.49
2022-07-30T20:47:34.436Z,52.91
2022-07-30T20:50:14.370Z,52.50
2022-07-30T20:52:46.930Z,52.98
2022-07-30T20:55:17.612Z,52.79
2022-07-30T20:57:59.304Z,53.10
2022-07-30T21:00:37.655Z,53.38
2022-07-30T21:03:06.567Z,53.54
2022-07-30T21:05:43.168Z,53.66
2022-07-30T21:08:12.699Z,54.22
2022-07-30T21:10:44.844Z,54.64
2022-07-30T21:13:15.765Z,54.29
2022-07-30T21:16:01.805Z,54.58
2022-07-30T21:18:32.870Z,54.67
2022-07-30T21:21:03.002Z,54.86
2022-07-30T21:23:34.689Z,55.31
2022-07-30T21:26:10.530Z,55.32
2022-07-30T21:28:43.067Z,55.65
2022-07-30T21:31:11.345Z,55.58
2022-07-30T21:33:41.942Z,55.51
2022-07-30T21:36:11.144Z,55.66
2022-07-30T21:38:41.962Z,55.98
2022-07-30T21:41:14.100Z,55.89
2022-07-30T21:43:49.236Z,55.84
2022-07-30T21:46:24.857Z,56.10
2022-07-30T21:48:58.346Z,56.38
2022-07-30T21:51:27.689Z,56.51
2022-07-30T21:54:17.113Z,56.23
2022-07-30T21:56:58.087Z,56.21
2022-07-30T21:59:28.206Z,56.13
2022-07-30T22:01:57.884Z,56.35
2022-07-30T22:04:27.370Z,56.36
2022-07-30T22:06:55.620Z,56.42
2022-07-30T22:09:34.380Z,56.49
2022-07-30T22:12:10.014Z,56.60
2022-07-30T22:14:43.672Z,56.52
2022-07-30T22:17:23.391Z,56.55
2022-07-30T22:19:57.938Z,56.43
2022-07-30T22:22:30.153Z,56.49
2022-07-30T22:25:03.763Z,56.73
2022-07-30T22:27:40.022Z,57.44
2022-07-30T22:30:27.684Z,57.02
2022-07-30T22:32:56.172Z,56.96
2022-07-30T22:35:33.620Z,56.95
2022-07-30T22:38:03.126Z,56.79
2022-07-30T22:40:31.726Z,56.74
2022-07-30T22:43:04.170Z,57.08
2022-07-30T22:45:48.237Z,56.96
2022-07-30T22:48:20.743Z,56.98
2022-07-30T22:50:55.641Z,56.88
2022-07-30T22:54:03.171Z,56.57
2022-07-30T22:56:18.518Z,56.73
2022-07-30T22:58:48.698Z,56.51
2022-07-30T23:01:18.614Z,56.50
2022-07-30T23:03:48.984Z,56.97
2022-07-30T23:06:17.088Z,57.30
2022-07-30T23:08:51.583Z,57.15
2022-07-30T23:11:21.129Z,57.15
2022-07-30T23:13:53.743Z,57.05
2022-07-30T23:16:24.422Z,56.95
2022-07-30T23:18:55.620Z,57.42
2022-07-30T23:21:24.618Z,57.22
2022-07-30T23:23:52.821Z,57.55
2022-07-30T23:26:21.157Z,57.50
2022-07-30T23:28:49.532Z,57.53
2022-07-30T23:31:17.738Z,58.09
2022-07-30T23:33:47.307Z,58.01
2022-07-30T23:36:15.452Z,58.01
2022-07-30T23:38:43.604Z,57.95
2022-07-30T23:41:14.536Z,58.18
2022-07-30T23:43:58.082Z,58.09
2022-07-30T23:46:27.286Z,58.53
2022-07-30T23:48:56.875Z,58.84
2022-07-30T23:51:25.050Z,58.72
2022-07-30T23:54:01.778Z,58.82
2022-07-30T23:56:29.928Z,58.97
2022-07-30T23:58:58.345Z,58.91
